Time;durP1;ratioP1;P1;durP2;ratioP2;P2;SDS_P1;SDS_P2;PMS_P1;PMS_P2;Temp;Humidity;BMP_temperature;BMP_pressure;BME280_temperature;BME280_humidity;BME280_pressure;Samples;Min_cycle;Max_cycle;Signal;HPM_P1;HPM_P2
2022/11/28 00:01:28;;;;;;;44.67;37.08;;;;;;;2.46;100.00;95833.84;5088077;28;20042;-61
2022/11/28 00:03:53;;;;;;;38.55;30.17;;;;;;;2.39;100.00;95835.16;5069843;28;20017;-61
2022/11/28 00:06:19;;;;;;;38.03;30.63;;;;;;;2.39;100.00;95827.34;5088947;28;20085;-61
2022/11/28 00:08:44;;;;;;;39.83;33.20;;;;;;;2.39;100.00;95827.34;5089094;28;20027;-60
2022/11/28 00:11:13;;;;;;;43.25;32.33;;;;;;;2.36;100.00;95822.34;5089838;28;20095;-61
2022/11/28 00:13:39;;;;;;;36.80;31.48;;;;;;;2.35;100.00;95820.66;5092609;28;20031;-61
2022/11/28 00:16:07;;;;;;;38.28;31.33;;;;;;;2.34;100.00;95817.22;5085327;28;20103;-61
2022/11/28 00:18:32;;;;;;;35.40;31.60;;;;;;;2.28;100.00;95818.38;5081882;28;20036;-61
2022/11/28 00:21:05;;;;;;;36.60;30.52;;;;;;;2.31;100.00;95820.00;5091768;28;20027;-61
2022/11/28 00:23:31;;;;;;;41.00;32.50;;;;;;;2.28;100.00;95822.78;5088495;28;20114;-67
2022/11/28 00:25:59;;;;;;;46.13;37.63;;;;;;;2.25;100.00;95815.97;5086349;28;20385;-60
2022/11/28 00:28:25;;;;;;;50.28;39.50;;;;;;;2.24;100.00;95818.69;5085043;28;20577;-57
2022/11/28 00:30:50;;;;;;;38.75;34.47;;;;;;;2.22;100.00;95823.13;5091086;28;20036;-58
2022/11/28 00:36:37;;;;;;;37.10;28.45;;;;;;;2.19;100.00;95834.53;5089447;28;20031;-59
2022/11/28 00:39:03;;;;;;;37.35;30.60;;;;;;;2.18;100.00;95830.25;5084896;28;20398;-56
2022/11/28 00:44:50;;;;;;;38.83;29.33;;;;;;;2.13;100.00;95830.50;5080797;28;20031;-66
2022/11/28 00:47:15;;;;;;;34.47;27.80;;;;;;;2.12;100.00;95830.59;5090242;28;20020;-60
2022/11/28 00:49:42;;;;;;;49.85;37.08;;;;;;;2.06;100.00;95831.78;5085643;28;20024;-60
2022/11/28 00:52:07;;;;;;;41.33;30.05;;;;;;;1.98;100.00;95836.53;5094414;28;20081;-61
2022/11/28 00:54:33;;;;;;;39.97;28.77;;;;;;;1.90;100.00;95825.75;5085416;28;20394;-60
2022/11/28 00:56:58;;;;;;;32.78;26.08;;;;;;;1.89;100.00;95817.16;5089099;28;20132;-61
2022/11/28 00:59:23;;;;;;;31.00;25.08;;;;;;;1.88;100.00;95822.41;5077230;28;20026;-61
2022/11/28 01:01:49;;;;;;;36.15;25.80;;;;;;;1.90;100.00;95826.59;5083663;28;20111;-61
2022/11/28 01:04:16;;;;;;;33.00;25.58;;;;;;;1.92;100.00;95811.78;5089820;28;20497;-61
2022/11/28 01:06:49;;;;;;;40.03;24.50;;;;;;;2.01;100.00;95805.22;5086749;28;20077;-61
2022/11/28 01:09:18;;;;;;;38.78;27.17;;;;;;;2.03;100.00;95797.34;5090219;28;20070;-60
2022/11/28 01:11:44;;;;;;;41.05;25.02;;;;;;;1.98;100.00;95788.06;5085658;28;20464;-61
2022/11/28 01:14:10;;;;;;;33.22;23.08;;;;;;;2.19;100.00;95800.75;5084367;28;20031;-61
2022/11/28 01:16:36;;;;;;;32.90;22.75;;;;;;;2.04;100.00;95780.84;5085409;28;20107;-60
2022/11/28 01:19:01;;;;;;;30.77;23.10;;;;;;;1.97;100.00;95788.13;5088023;28;20098;-61
2022/11/28 01:21:27;;;;;;;32.47;23.38;;;;;;;1.82;100.00;95787.22;5082682;28;20039;-61
2022/11/28 01:23:52;;;;;;;34.53;23.02;;;;;;;1.72;100.00;95786.91;5087465;28;20062;-62
2022/11/28 01:26:20;;;;;;;30.70;22.05;;;;;;;1.67;100.00;95789.78;5081565;28;20330;-68
2022/11/28 01:28:47;;;;;;;25.73;20.67;;;;;;;1.69;100.00;95779.28;5082926;28;20024;-68
2022/11/28 01:31:20;;;;;;;22.90;19.95;;;;;;;1.71;100.00;95778.31;5085895;28;20049;-68
2022/11/28 01:33:46;;;;;;;23.30;19.33;;;;;;;1.65;100.00;95776.03;5078014;28;20059;-68
2022/11/28 01:36:13;;;;;;;22.42;18.90;;;;;;;1.84;100.00;95787.97;5081282;28;20020;-68
2022/11/28 01:38:39;;;;;;;26.20;19.75;;;;;;;1.66;100.00;95766.50;5084231;28;20105;-68
2022/11/28 01:41:05;;;;;;;22.60;18.45;;;;;;;1.69;100.00;95774.97;5083428;28;20089;-61
2022/11/28 01:43:31;;;;;;;21.88;17.75;;;;;;;1.68;100.00;95762.03;5084222;28;20020;-63
2022/11/28 01:45:57;;;;;;;25.05;20.08;;;;;;;1.59;100.00;95755.59;5084491;28;20024;-60
2022/11/28 01:48:31;;;;;;;24.38;19.63;;;;;;;1.60;100.00;95743.47;5085034;28;20107;-61
2022/11/28 01:51:03;;;;;;;23.65;19.65;;;;;;;1.67;100.00;95737.00;5064871;28;20024;-60
2022/11/28 01:53:29;;;;;;;28.13;20.25;;;;;;;1.73;100.00;95746.22;5083200;28;20024;-60
2022/11/28 01:56:05;;;;;;;23.15;18.67;;;;;;;1.63;100.00;95741.53;5084759;28;20062;-60
2022/11/28 01:58:33;;;;;;;17.92;15.48;;;;;;;1.70;100.00;95737.69;5076184;28;20119;-61
2022/11/28 02:00:58;;;;;;;20.67;18.48;;;;;;;1.71;100.00;95741.97;5086128;28;20027;-67
2022/11/28 02:03:29;;;;;;;20.23;16.45;;;;;;;2.02;100.00;95744.56;5078405;28;20025;-71
2022/11/28 02:05:55;;;;;;;14.70;13.05;;;;;;;2.27;100.00;95736.19;5079262;28;20024;-61
2022/11/28 02:08:20;;;;;;;16.10;14.40;;;;;;;2.18;100.00;95741.94;5080729;28;20052;-60
2022/11/28 02:11:26;;;;;;;19.52;14.82;;;;;;;2.10;100.00;95731.97;5082214;28;20050;-61
2022/11/28 02:14:05;;;;;;;16.95;12.70;;;;;;;2.00;100.00;95729.06;5080270;28;20440;-61
2022/11/28 02:16:55;;;;;;;17.77;13.10;;;;;;;2.00;100.00;95726.47;5078623;28;20469;-60
2022/11/28 02:20:05;;;;;;;15.52;12.95;;;;;;;2.00;100.00;95731.66;5077345;28;20103;-61
2022/11/28 02:22:36;;;;;;;17.42;11.95;;;;;;;1.97;100.00;95731.84;5053132;28;20044;-57
2022/11/28 02:25:26;;;;;;;11.05;9.45;;;;;;;2.09;100.00;95725.09;5082424;28;20024;-60
2022/11/28 02:28:21;;;;;;;14.35;9.60;;;;;;;2.11;100.00;95719.84;5081347;28;20407;-60
2022/11/28 02:31:23;;;;;;;10.77;9.68;;;;;;;2.03;100.00;95722.03;5077148;28;20016;-60
2022/11/28 02:33:54;;;;;;;11.43;10.02;;;;;;;1.99;100.00;95714.41;5082189;28;20581;-60
2022/11/28 02:36:31;;;;;;;14.10;9.05;;;;;;;2.04;100.00;95708.13;5080186;28;20873;-60
2022/11/28 02:39:11;;;;;;;13.00;9.82;;;;;;;2.09;100.00;95696.53;5079606;28;20093;-60
2022/11/28 02:41:49;;;;;;;12.00;10.07;;;;;;;2.00;100.00;95694.50;5081511;28;20124;-60
2022/11/28 02:44:21;;;;;;;12.65;10.68;;;;;;;2.04;100.00;95684.75;5088602;28;20027;-56
2022/11/28 02:46:56;;;;;;;11.82;9.52;;;;;;;2.06;100.00;95686.34;5081641;28;20517;-58
2022/11/28 02:49:28;;;;;;;10.00;8.40;;;;;;;2.21;100.00;95670.75;5084757;28;20036;-59
2022/11/28 02:52:06;;;;;;;9.75;8.63;;;;;;;2.10;100.00;95671.38;5082930;28;20073;-58
2022/11/28 02:54:31;;;;;;;10.25;8.15;;;;;;;2.05;100.00;95661.28;5079479;28;20024;-57
2022/11/28 02:56:57;;;;;;;10.30;8.20;;;;;;;2.04;100.00;95656.16;5082431;28;20031;-56
2022/11/28 02:59:42;;;;;;;8.95;8.05;;;;;;;2.09;100.00;95651.53;5080477;28;20030;-58
2022/11/28 03:02:23;;;;;;;8.07;7.28;;;;;;;1.97;100.00;95648.75;5080650;28;20032;-58
2022/11/28 03:04:48;;;;;;;8.80;7.38;;;;;;;1.93;100.00;95638.63;5080130;28;20502;-58
2022/11/28 03:07:49;;;;;;;6.97;6.00;;;;;;;2.09;100.00;95644.59;5082074;28;20039;-57
2022/11/28 03:10:39;;;;;;;7.22;6.53;;;;;;;2.36;100.00;95643.84;5082441;28;20730;-57
2022/11/28 03:13:36;;;;;;;8.38;7.53;;;;;;;2.23;100.00;95635.97;5082709;28;20028;-58
2022/11/28 03:16:55;;;;;;;13.40;8.15;;;;;;;2.28;100.00;95636.53;5046538;28;20040;-57
2022/11/28 03:19:32;;;;;;;8.65;7.53;;;;;;;2.22;100.00;95634.31;4977467;28;20045;-62
2022/11/28 03:22:09;;;;;;;11.35;8.02;;;;;;;2.10;100.00;95627.22;5077610;28;20033;-57
2022/11/28 03:25:01;;;;;;;9.10;7.88;;;;;;;1.97;100.00;95627.13;5079418;28;20100;-57
2022/11/28 03:27:38;;;;;;;10.45;7.55;;;;;;;1.85;100.00;95626.09;5078724;28;20033;-56
2022/11/28 03:30:13;;;;;;;8.18;7.32;;;;;;;1.87;100.00;95629.44;5082683;28;20858;-58
2022/11/28 03:32:40;;;;;;;7.75;6.95;;;;;;;1.81;100.00;95625.44;5078536;28;20093;-57
2022/11/28 03:35:19;;;;;;;8.77;7.88;;;;;;;1.83;100.00;95631.38;5078035;28;20052;-56
2022/11/28 03:37:50;;;;;;;7.78;6.65;;;;;;;1.75;100.00;95637.94;5079989;28;20407;-66
2022/11/28 03:40:21;;;;;;;8.85;6.95;;;;;;;1.69;100.00;95632.19;5087022;28;20077;-67
2022/11/28 03:42:56;;;;;;;8.32;7.05;;;;;;;1.71;100.00;95650.25;5081717;28;20658;-60
2022/11/28 03:45:25;;;;;;;9.10;7.20;;;;;;;1.71;100.00;95645.91;5075277;28;20034;-60
2022/11/28 03:47:57;;;;;;;7.78;6.93;;;;;;;1.69;100.00;95645.19;5090655;28;20206;-60
2022/11/28 03:50:30;;;;;;;8.50;7.45;;;;;;;1.63;100.00;95642.91;5086798;28;20028;-60
2022/11/28 03:53:02;;;;;;;9.38;5.90;;;;;;;1.61;100.00;95636.97;5086566;28;20019;-60
2022/11/28 03:55:39;;;;;;;7.18;6.32;;;;;;;1.62;100.00;95643.00;5085177;28;20493;-60
2022/11/28 03:58:21;;;;;;;7.80;5.82;;;;;;;1.66;100.00;95637.56;5086476;28;20040;-67
2022/11/28 04:01:15;;;;;;;5.88;5.38;;;;;;;1.60;100.00;95637.91;5087663;28;20044;-62
2022/11/28 04:04:06;;;;;;;9.07;5.95;;;;;;;1.57;100.00;95638.94;5080722;28;20101;-62
2022/11/28 04:06:43;;;;;;;6.70;5.50;;;;;;;1.57;100.00;95630.28;5080600;28;20041;-62
2022/11/28 04:09:16;;;;;;;6.68;5.72;;;;;;;1.56;100.00;95626.88;5087572;28;20028;-62
2022/11/28 04:11:55;;;;;;;7.95;5.60;;;;;;;1.57;100.00;95630.28;5081405;28;20035;-62
2022/11/28 04:14:36;;;;;;;6.90;6.20;;;;;;;1.60;100.00;95626.69;5078502;28;20027;-62
2022/11/28 04:17:22;;;;;;;6.82;6.20;;;;;;;1.66;100.00;95623.75;5081396;28;20033;-66
2022/11/28 04:19:52;;;;;;;9.75;6.85;;;;;;;1.67;100.00;95623.66;5080734;28;20559;-66
2022/11/28 04:22:28;;;;;;;7.00;5.75;;;;;;;1.67;100.00;95617.63;5075890;28;20036;-66
2022/11/28 04:24:59;;;;;;;8.40;7.10;;;;;;;1.67;100.00;95609.84;5086787;28;20016;-67
2022/11/28 04:27:33;;;;;;;8.65;6.47;;;;;;;1.67;100.00;95618.47;5084963;28;20044;-66
2022/11/28 04:30:01;;;;;;;7.97;6.10;;;;;;;1.67;100.00;95613.28;5080447;28;20020;-66
2022/11/28 04:32:28;;;;;;;6.57;5.72;;;;;;;1.68;100.00;95608.91;5087288;28;20425;-67
2022/11/28 04:35:04;;;;;;;8.75;6.53;;;;;;;2.04;100.00;95618.06;5092825;28;20056;-66
2022/11/28 04:37:32;;;;;;;8.65;7.75;;;;;;;2.12;100.00;95618.44;5087509;28;20020;-60
2022/11/28 04:39:59;;;;;;;40.92;26.50;;;;;;;1.99;100.00;95620.09;5083266;28;20024;-60
2022/11/28 04:42:39;;;;;;;27.25;20.30;;;;;;;1.91;100.00;95604.13;5086634;28;20409;-60
2022/11/28 04:45:29;;;;;;;22.75;15.80;;;;;;;1.87;100.00;95603.47;5094510;28;20516;-60
2022/11/28 04:47:55;;;;;;;9.93;8.43;;;;;;;1.84;100.00;95606.25;5073846;28;20044;-60
2022/11/28 04:50:24;;;;;;;9.30;8.27;;;;;;;1.83;100.00;95608.03;5085108;28;20062;-60
2022/11/28 04:53:03;;;;;;;10.90;8.57;;;;;;;1.83;100.00;95612.38;5085101;28;20051;-60
2022/11/28 04:55:40;;;;;;;13.10;10.02;;;;;;;1.84;100.00;95611.44;5088752;28;20032;-60
2022/11/28 04:58:45;;;;;;;36.03;24.33;;;;;;;1.86;100.00;95604.38;5083343;28;20474;-67
2022/11/28 05:01:17;;;;;;;40.08;27.60;;;;;;;1.88;100.00;95604.31;5064027;28;20028;-67
2022/11/28 05:03:42;;;;;;;26.08;19.48;;;;;;;1.89;100.00;95606.84;5088688;28;20062;-66
2022/11/28 05:06:08;;;;;;;16.73;12.18;;;;;;;1.90;100.00;95605.91;5080933;28;20028;-67
2022/11/28 05:08:34;;;;;;;21.13;14.80;;;;;;;2.08;100.00;95597.91;5096001;28;20031;-66
2022/11/28 05:10:59;;;;;;;31.80;22.77;;;;;;;1.97;100.00;95598.56;5088515;28;20032;-66
2022/11/28 05:13:24;;;;;;;31.20;23.90;;;;;;;1.98;100.00;95595.88;5079393;28;20028;-64
2022/11/28 05:15:51;;;;;;;31.17;21.88;;;;;;;2.06;100.00;95598.03;5082434;28;20067;-60
2022/11/28 05:18:16;;;;;;;25.08;19.08;;;;;;;2.03;100.00;95595.63;5088067;28;20050;-60
2022/11/28 05:20:41;;;;;;;18.25;15.77;;;;;;;2.02;100.00;95596.56;5079791;28;20052;-60
2022/11/28 05:23:07;;;;;;;18.60;13.32;;;;;;;2.33;100.00;95599.06;5085844;28;20036;-60
2022/11/28 05:25:32;;;;;;;16.67;13.15;;;;;;;2.21;100.00;95593.66;5085128;28;20020;-60
2022/11/28 05:27:58;;;;;;;18.55;15.00;;;;;;;2.68;100.00;95603.84;5083880;28;20057;-60
2022/11/28 05:30:23;;;;;;;11.65;10.43;;;;;;;2.53;100.00;95608.22;5081441;28;20031;-60
2022/11/28 05:32:48;;;;;;;15.00;11.55;;;;;;;2.41;100.00;95599.41;5089248;28;20421;-60
2022/11/28 05:35:14;;;;;;;17.70;14.30;;;;;;;2.35;100.00;95605.81;5096117;28;21355;-67
2022/11/28 05:37:40;;;;;;;18.48;12.32;;;;;;;2.29;100.00;95609.63;5085753;28;20807;-56
2022/11/28 05:40:06;;;;;;;12.93;11.60;;;;;;;2.33;100.00;95610.28;5087789;28;20030;-58
2022/11/28 05:42:33;;;;;;;14.38;11.25;;;;;;;2.29;100.00;95612.22;5083215;28;20079;-56
2022/11/28 05:44:58;;;;;;;13.23;11.90;;;;;;;2.49;100.00;95604.97;5087410;28;20031;-57
2022/11/28 05:47:24;;;;;;;19.33;16.85;;;;;;;2.60;100.00;95619.09;5081953;28;20024;-57
2022/11/28 05:49:49;;;;;;;13.65;12.48;;;;;;;2.50;100.00;95611.84;5094027;28;20031;-57
2022/11/28 05:52:15;;;;;;;15.98;14.48;;;;;;;2.48;100.00;95618.88;5093982;28;20503;-61
2022/11/28 05:54:40;;;;;;;15.90;14.23;;;;;;;2.50;100.00;95613.63;5092010;28;20024;-61
2022/11/28 05:57:06;;;;;;;49.03;41.47;;;;;;;2.46;100.00;95617.34;5087320;28;20046;-71
2022/11/28 05:59:32;;;;;;;44.10;34.70;;;;;;;2.38;100.00;95613.41;5094988;28;20397;-71
2022/11/28 06:01:58;;;;;;;34.03;29.48;;;;;;;2.38;100.00;95612.59;5085077;28;20111;-71
2022/11/28 06:04:23;;;;;;;17.88;13.90;;;;;;;2.44;100.00;95612.22;5084121;28;20020;-67
2022/11/28 06:06:50;;;;;;;42.00;33.67;;;;;;;2.45;100.00;95613.06;5098692;28;20496;-68
2022/11/28 06:09:16;;;;;;;31.17;23.77;;;;;;;2.41;100.00;95602.00;5083575;28;20492;-69
2022/11/28 06:11:41;;;;;;;35.97;27.05;;;;;;;2.38;100.00;95605.63;5085397;28;20028;-63
2022/11/28 06:14:07;;;;;;;42.17;27.50;;;;;;;2.34;100.00;95598.94;5091195;28;20035;-69
2022/11/28 06:16:32;;;;;;;27.45;20.75;;;;;;;2.32;100.00;95594.75;5088280;28;20058;-69
2022/11/28 06:19:00;;;;;;;24.45;18.08;;;;;;;2.29;100.00;95591.44;5088963;28;20024;-69
2022/11/28 06:21:27;;;;;;;19.00;15.15;;;;;;;2.27;100.00;95595.88;5067450;28;20024;-69
2022/11/28 06:23:53;;;;;;;24.70;15.52;;;;;;;2.30;100.00;95594.88;5083389;28;20016;-69
2022/11/28 06:26:21;;;;;;;18.35;14.57;;;;;;;2.31;100.00;95600.88;5086588;28;20533;-70
2022/11/28 06:28:47;;;;;;;19.15;15.38;;;;;;;2.31;100.00;95595.69;5086608;28;20027;-69
2022/11/28 06:31:15;;;;;;;17.02;14.98;;;;;;;2.28;100.00;95592.34;5071294;28;20020;-69
2022/11/28 06:33:41;;;;;;;17.40;13.77;;;;;;;2.27;100.00;95595.88;5085807;28;20549;-57
2022/11/28 06:36:10;;;;;;;16.85;14.02;;;;;;;2.64;100.00;95600.56;5084898;28;20036;-57
2022/11/28 06:38:36;;;;;;;22.63;17.17;;;;;;;2.47;100.00;95596.44;5086041;28;20114;-57
2022/11/28 06:41:05;;;;;;;36.25;25.95;;;;;;;2.49;100.00;95598.94;5084810;28;20031;-57
2022/11/28 06:43:31;;;;;;;30.52;25.90;;;;;;;2.49;100.00;95604.16;5084038;28;20027;-57
2022/11/28 06:45:57;;;;;;;40.10;33.20;;;;;;;2.65;100.00;95598.81;5082712;28;20161;-56
2022/11/28 06:48:23;;;;;;;33.17;27.17;;;;;;;2.60;100.00;95600.88;5083563;28;20032;-56
2022/11/28 06:50:48;;;;;;;31.92;26.48;;;;;;;2.53;100.00;95600.44;5087100;28;20417;-56
2022/11/28 06:53:14;;;;;;;32.90;25.80;;;;;;;2.48;100.00;95605.91;5087998;28;20055;-57
2022/11/28 06:55:39;;;;;;;30.65;24.60;;;;;;;2.46;100.00;95609.53;5092638;28;20436;-61
2022/11/28 06:58:05;;;;;;;28.20;22.60;;;;;;;2.42;100.00;95608.88;5084558;28;20111;-60
2022/11/28 07:00:31;;;;;;;28.33;22.42;;;;;;;2.48;100.00;95611.09;5079168;28;20031;-60
2022/11/28 07:02:57;;;;;;;29.42;23.67;;;;;;;2.49;100.00;95617.97;5080372;28;20027;-61
2022/11/28 07:05:26;;;;;;;33.67;29.58;;;;;;;2.49;100.00;95615.38;5089314;28;20103;-61
2022/11/28 07:07:54;;;;;;;36.38;29.20;;;;;;;2.51;100.00;95610.91;5085493;28;20035;-62
2022/11/28 07:10:20;;;;;;;32.42;26.77;;;;;;;2.51;100.00;95605.69;5082509;28;20116;-73
2022/11/28 07:12:46;;;;;;;28.42;20.80;;;;;;;2.50;100.00;95605.81;5077640;28;20039;-58
2022/11/28 07:15:11;;;;;;;23.95;19.88;;;;;;;2.52;100.00;95598.75;5073510;28;20047;-61
2022/11/28 07:17:36;;;;;;;28.63;20.95;;;;;;;2.53;100.00;95601.25;5086205;28;20031;-61
2022/11/28 07:20:03;;;;;;;27.10;20.00;;;;;;;2.55;100.00;95596.81;5085633;28;20474;-61
2022/11/28 07:22:29;;;;;;;26.30;21.17;;;;;;;2.57;100.00;95602.75;5076783;28;20553;-61
2022/11/28 07:24:54;;;;;;;28.83;22.10;;;;;;;2.60;100.00;95595.69;5086847;28;20059;-61
2022/11/28 07:27:20;;;;;;;36.35;29.20;;;;;;;2.65;100.00;95604.03;5086968;28;20135;-61
2022/11/28 07:29:45;;;;;;;32.10;28.42;;;;;;;2.64;100.00;95597.97;5084990;28;20500;-61
2022/11/28 07:32:10;;;;;;;32.75;23.38;;;;;;;2.63;100.00;95595.50;5085676;28;20085;-65
2022/11/28 07:34:36;;;;;;;23.63;20.27;;;;;;;2.64;100.00;95589.38;5084731;28;20031;-65
2022/11/28 07:37:02;;;;;;;25.23;20.38;;;;;;;2.69;100.00;95598.56;5087712;28;20024;-65
2022/11/28 07:39:28;;;;;;;33.03;25.88;;;;;;;2.72;100.00;95590.56;5091718;28;20023;-66
2022/11/28 07:41:53;;;;;;;32.40;26.88;;;;;;;2.77;100.00;95592.88;5079845;28;20028;-65
2022/11/28 07:44:19;;;;;;;37.08;29.13;;;;;;;2.81;100.00;95591.75;5088008;28;20383;-66
2022/11/28 07:46:45;;;;;;;32.72;29.27;;;;;;;2.86;100.00;95591.44;5084148;28;20051;-65
2022/11/28 07:49:12;;;;;;;35.05;27.73;;;;;;;2.90;100.00;95592.94;5082580;28;20310;-66
2022/11/28 07:51:38;;;;;;;59.38;40.05;;;;;;;2.94;100.00;95598.75;5083394;28;20036;-58
2022/11/28 07:54:04;;;;;;;72.03;42.80;;;;;;;2.95;100.00;95592.63;5081217;28;20413;-58
2022/11/28 07:56:33;;;;;;;68.10;39.88;;;;;;;2.97;100.00;95591.59;5079840;28;20023;-56
2022/11/28 07:58:59;;;;;;;59.78;37.47;;;;;;;3.01;100.00;95589.66;5082511;28;20153;-57
2022/11/28 08:01:27;;;;;;;44.78;29.52;;;;;;;3.05;100.00;95583.31;5084234;28;20107;-57
2022/11/28 08:03:53;;;;;;;36.40;26.08;;;;;;;3.12;100.00;95592.38;5080961;28;20017;-58
2022/11/28 08:06:21;;;;;;;51.35;35.03;;;;;;;3.19;100.00;95581.56;5078580;28;20020;-58
2022/11/28 08:08:48;;;;;;;48.00;33.90;;;;;;;3.23;100.00;95578.69;5090872;28;20012;-60
2022/11/28 08:11:15;;;;;;;49.85;34.63;;;;;;;3.25;100.00;95582.00;5083622;28;20031;-60
2022/11/28 08:13:41;;;;;;;87.07;52.83;;;;;;;3.26;100.00;95575.88;5088628;28;20030;-59
2022/11/28 08:16:10;;;;;;;55.70;42.45;;;;;;;3.33;100.00;95578.09;5087334;28;20032;-60
2022/11/28 08:18:36;;;;;;;55.65;42.28;;;;;;;3.42;100.00;95573.09;5082105;28;20502;-60
2022/11/28 08:21:10;;;;;;;82.03;53.10;;;;;;;3.46;100.00;95571.13;5086291;28;20054;-59
2022/11/28 08:23:36;;;;;;;71.95;50.75;;;;;;;3.44;100.00;95565.22;5087998;28;20029;-60
2022/11/28 08:26:07;;;;;;;61.05;45.40;;;;;;;3.48;100.00;95565.84;5083818;28;20043;-60
2022/11/28 08:28:33;;;;;;;50.88;39.72;;;;;;;3.52;100.00;95564.69;5078938;28;20124;-62
2022/11/28 08:31:00;;;;;;;56.70;42.95;;;;;;;3.59;100.00;95571.16;5089833;28;20050;-61
2022/11/28 08:33:26;;;;;;;50.08;39.53;;;;;;;3.63;100.00;95564.00;5085303;28;20113;-61
2022/11/28 08:35:52;;;;;;;51.40;40.05;;;;;;;3.70;100.00;95560.88;5089528;28;20099;-62
2022/11/28 08:38:18;;;;;;;49.45;39.42;;;;;;;3.79;100.00;95553.38;5086628;28;20023;-60
2022/11/28 08:40:43;;;;;;;48.17;39.05;;;;;;;3.86;100.00;95555.47;5080815;28;20028;-61
2022/11/28 08:43:09;;;;;;;49.60;38.22;;;;;;;3.93;100.00;95550.69;5088648;28;20031;-61
2022/11/28 08:45:37;;;;;;;47.38;39.28;;;;;;;4.00;100.00;95561.50;5086104;28;20020;-61
2022/11/28 08:48:04;;;;;;;47.75;36.35;;;;;;;4.05;100.00;95555.97;5084120;28;20515;-61
2022/11/28 08:50:29;;;;;;;43.10;34.88;;;;;;;4.11;100.00;95550.34;5085129;28;20402;-61
2022/11/28 08:52:55;;;;;;;41.45;31.77;;;;;;;4.20;100.00;95554.06;5087171;28;20027;-62
2022/11/28 08:55:20;;;;;;;41.90;32.35;;;;;;;4.29;100.00;95556.88;5091485;28;20028;-60
2022/11/28 08:57:46;;;;;;;42.40;32.65;;;;;;;4.36;100.00;95548.66;5086710;28;20152;-60
2022/11/28 09:00:12;;;;;;;36.58;32.58;;;;;;;4.41;100.00;95554.38;5090481;28;20505;-61
2022/11/28 09:02:38;;;;;;;37.97;31.55;;;;;;;4.46;100.00;95559.28;5085165;28;20030;-61
2022/11/28 09:05:04;;;;;;;36.92;28.92;;;;;;;4.50;100.00;95563.34;5092593;28;20020;-68
2022/11/28 09:07:29;;;;;;;27.80;23.67;;;;;;;4.57;100.00;95564.56;5082847;28;20074;-68
2022/11/28 09:09:55;;;;;;;20.60;18.40;;;;;;;4.69;100.00;95560.25;5089378;28;20027;-68
2022/11/28 09:12:20;;;;;;;36.45;30.40;;;;;;;4.78;100.00;95550.94;5082171;28;20020;-68
2022/11/28 09:14:46;;;;;;;34.00;28.17;;;;;;;4.87;100.00;95560.72;5088058;28;20020;-68
2022/11/28 09:17:12;;;;;;;32.20;25.45;;;;;;;4.92;100.00;95561.22;5089303;28;20107;-68
2022/11/28 09:19:37;;;;;;;22.52;20.23;;;;;;;4.96;98.08;95562.66;5077295;28;20021;-68
2022/11/28 09:22:03;;;;;;;18.33;16.40;;;;;;;5.01;96.17;95559.72;5092174;28;20024;-68
2022/11/28 09:24:28;;;;;;;20.23;16.88;;;;;;;5.08;96.99;95560.09;5088697;28;20032;-61
2022/11/28 09:26:54;;;;;;;27.55;24.25;;;;;;;5.18;96.92;95571.56;5081838;28;20040;-60
2022/11/28 09:29:19;;;;;;;44.08;33.15;;;;;;;5.28;97.74;95563.88;5081000;28;20509;-66
2022/11/28 09:31:45;;;;;;;45.53;32.42;;;;;;;5.36;96.98;95555.50;5082993;28;20377;-66
2022/11/28 09:34:10;;;;;;;32.17;25.13;;;;;;;5.40;96.08;95562.97;5087695;28;20409;-66
2022/11/28 09:36:36;;;;;;;23.73;20.30;;;;;;;5.49;95.49;95558.03;5086168;28;20418;-67
2022/11/28 09:39:02;;;;;;;17.67;15.80;;;;;;;5.58;94.06;95554.72;5090516;28;20019;-66
2022/11/28 09:41:36;;;;;;;20.75;16.77;;;;;;;5.61;93.99;95545.84;5083773;28;20035;-66
2022/11/28 09:44:13;;;;;;;30.23;25.53;;;;;;;5.60;94.66;95558.03;5089915;28;20475;-60
2022/11/28 09:46:40;;;;;;;30.95;23.73;;;;;;;5.65;95.65;95549.88;5085692;28;20036;-66
2022/11/28 09:49:20;;;;;;;27.90;23.30;;;;;;;5.68;94.05;95542.66;5080691;28;20020;-61
2022/11/28 09:52:01;;;;;;;27.40;22.00;;;;;;;5.74;93.93;95543.94;5088453;28;20020;-61
2022/11/28 09:54:45;;;;;;;29.25;20.73;;;;;;;5.82;93.61;95543.38;5086397;28;20042;-61
2022/11/28 09:57:20;;;;;;;28.60;18.90;;;;;;;5.94;93.28;95532.00;5090106;28;20035;-61
2022/11/28 09:59:45;;;;;;;27.52;18.25;;;;;;;6.00;93.67;95534.13;5087108;28;20103;-61
2022/11/28 10:02:25;;;;;;;26.83;17.15;;;;;;;6.08;94.91;95530.13;5082393;28;20585;-61
2022/11/28 10:05:18;;;;;;;19.75;16.13;;;;;;;6.13;92.64;95536.66;5088030;28;20442;-60
2022/11/28 10:07:58;;;;;;;20.85;14.77;;;;;;;6.32;91.84;95534.44;5084925;28;20020;-61
2022/11/28 10:10:49;;;;;;;14.93;12.43;;;;;;;6.56;85.38;95527.28;5088587;28;20025;-61
2022/11/28 10:13:55;;;;;;;17.70;12.60;;;;;;;6.46;86.62;95523.69;5091005;28;20068;-61
2022/11/28 10:16:48;;;;;;;16.83;11.75;;;;;;;6.64;83.94;95531.06;5085987;28;20437;-61
2022/11/28 10:19:18;;;;;;;19.98;13.75;;;;;;;6.62;84.28;95525.94;5083244;28;20027;-61
2022/11/28 10:21:58;;;;;;;19.38;16.88;;;;;;;6.64;85.58;95526.66;5090101;28;20389;-61
2022/11/28 10:24:39;;;;;;;27.20;20.33;;;;;;;6.74;83.68;95521.50;5083958;28;20024;-60
2022/11/28 10:27:05;;;;;;;27.83;20.48;;;;;;;6.83;81.65;95514.72;5088058;28;20116;-60
2022/11/28 10:29:47;;;;;;;26.23;19.65;;;;;;;6.93;83.17;95512.19;5088908;28;20035;-61
2022/11/28 10:32:32;;;;;;;22.80;18.23;;;;;;;7.04;80.96;95506.94;5086716;28;20498;-61
2022/11/28 10:35:00;;;;;;;19.20;16.05;;;;;;;7.15;81.03;95512.09;5089530;28;20012;-60
2022/11/28 10:37:30;;;;;;;20.35;15.93;;;;;;;7.22;78.82;95506.38;5079663;28;20039;-61
2022/11/28 10:40:08;;;;;;;16.30;14.35;;;;;;;7.36;79.84;95505.25;5087572;28;20012;-60
2022/11/28 10:42:48;;;;;;;11.45;10.25;;;;;;;7.54;75.16;95501.13;5082123;28;20508;-61
2022/11/28 10:45:48;;;;;;;14.30;12.43;;;;;;;7.71;78.39;95504.94;5084955;28;20027;-60
2022/11/28 10:48:35;;;;;;;18.38;14.07;;;;;;;7.90;78.72;95503.38;5072752;28;20039;-60
2022/11/28 10:51:33;;;;;;;17.42;14.65;;;;;;;8.04;77.28;95504.84;5087464;28;20043;-61
2022/11/28 10:54:10;;;;;;;22.33;16.02;;;;;;;8.18;79.63;95503.66;5085357;28;20456;-60
2022/11/28 10:57:07;;;;;;;21.85;16.95;;;;;;;8.21;78.04;95495.50;5088940;28;20024;-61
2022/11/28 10:59:38;;;;;;;;;;;;;;;8.20;76.75;95504.34;5083319;28;20635;-61
2022/11/28 11:02:31;;;;;;;20.98;15.55;;;;;;;8.22;78.35;95505.03;5082735;28;20016;-62
2022/11/28 11:04:56;;;;;;;19.60;14.20;;;;;;;8.21;79.18;95499.94;5086885;28;20027;-67
2022/11/28 11:07:28;;;;;;;15.60;13.05;;;;;;;8.26;78.49;95498.56;5082117;28;20032;-68
2022/11/28 11:09:59;;;;;;;17.60;12.85;;;;;;;8.32;78.66;95492.81;5088386;28;20024;-67
2022/11/28 11:12:33;;;;;;;15.77;12.13;;;;;;;8.36;77.86;95488.09;5087641;28;20102;-67
2022/11/28 11:15:14;;;;;;;17.58;14.20;;;;;;;8.38;73.08;95493.22;5084300;28;20481;-67
2022/11/28 11:17:40;;;;;;;22.25;17.85;;;;;;;8.40;77.01;95483.44;5084885;28;20408;-67
2022/11/28 11:20:26;;;;;;;19.35;16.35;;;;;;;8.37;77.36;95492.38;5087799;28;20035;-61
2022/11/28 11:23:20;;;;;;;20.95;16.08;;;;;;;8.19;76.51;95497.44;5079324;28;20029;-67
2022/11/28 11:25:54;;;;;;;20.35;14.82;;;;;;;8.17;79.09;95494.13;5078911;28;20443;-59
2022/11/28 11:28:47;;;;;;;20.30;16.73;;;;;;;8.07;78.28;95498.47;5090910;28;20039;-60
2022/11/28 11:31:19;;;;;;;15.52;13.30;;;;;;;8.08;78.67;95495.72;5076098;28;20051;-59
2022/11/28 11:33:45;;;;;;;17.60;13.63;;;;;;;8.06;78.99;95491.56;5081805;28;20040;-60
2022/11/28 11:36:26;;;;;;;13.95;12.35;;;;;;;8.12;76.08;95491.88;5088756;28;20030;-60
2022/11/28 11:39:02;;;;;;;10.80;8.65;;;;;;;8.17;75.14;95486.25;5088359;28;20027;-60
2022/11/28 11:41:30;;;;;;;7.78;6.28;;;;;;;8.29;70.89;95489.59;5081377;28;20491;-67
2022/11/28 11:43:56;;;;;;;6.13;5.53;;;;;;;8.32;70.14;95486.72;5082349;28;20103;-60
2022/11/28 11:46:22;;;;;;;6.20;5.60;;;;;;;8.40;68.78;95483.44;5081820;28;20058;-60
2022/11/28 11:48:52;;;;;;;4.78;3.75;;;;;;;8.46;66.74;95490.75;5080241;28;20638;-61